Time;durP1;ratioP1;P1;durP2;ratioP2;P2;SDS_P1;SDS_P2;PMS_P1;PMS_P2;Temp;Humidity;BMP_temperature;BMP_pressure;BME280_temperature;BME280_humidity;BME280_pressure;Samples;Min_cycle;Max_cycle;Signal;HPM_P1;HPM_P2
2023/01/11 00:01:50;;;;;;;0.90;0.60;;;8.90;99.90;;;;;;5037791;28;20454;-76
2023/01/11 00:04:19;;;;;;;1.07;0.97;;;8.90;99.90;;;;;;5036381;28;20458;-75
2023/01/11 00:06:46;;;;;;;1.23;0.90;;;8.90;99.90;;;;;;5036503;28;20509;-75
2023/01/11 00:09:14;;;;;;;1.13;0.80;;;9.00;99.90;;;;;;5036041;28;20985;-74
2023/01/11 00:11:43;;;;;;;0.90;0.67;;;9.00;99.90;;;;;;5036484;28;20483;-75
2023/01/11 00:14:10;;;;;;;0.97;0.77;;;9.00;99.90;;;;;;5035515;28;20443;-76
2023/01/11 00:16:37;;;;;;;1.00;0.70;;;9.00;99.90;;;;;;5036580;28;20433;-75
2023/01/11 00:19:04;;;;;;;1.10;0.90;;;9.00;99.90;;;;;;5036351;28;20528;-75
2023/01/11 00:21:32;;;;;;;1.00;0.80;;;9.00;99.90;;;;;;5035472;28;21020;-74
2023/01/11 00:23:59;;;;;;;0.93;0.70;;;9.10;99.90;;;;;;5035862;28;20460;-76
2023/01/11 00:26:26;;;;;;;1.00;0.70;;;9.00;99.90;;;;;;5035531;28;20802;-75
2023/01/11 00:28:53;;;;;;;0.90;0.70;;;9.00;99.90;;;;;;5035534;28;20485;-74
2023/01/11 00:31:21;;;;;;;1.13;0.77;;;9.00;99.90;;;;;;5035934;28;20463;-76
2023/01/11 00:33:48;;;;;;;1.10;0.80;;;9.00;99.90;;;;;;5035712;28;20431;-75
2023/01/11 00:36:16;;;;;;;1.23;0.90;;;9.10;99.90;;;;;;5036264;28;20431;-74
2023/01/11 00:38:45;;;;;;;1.10;0.70;;;9.10;99.90;;;;;;5043461;28;20489;-74
2023/01/11 00:49:28;;;;;;;0.97;0.70;;;9.20;99.90;;;;;;5034882;28;20843;-75
2023/01/11 00:51:54;;;;;;;1.00;0.80;;;9.20;99.90;;;;;;5037324;28;20452;-75
2023/01/11 00:54:23;;;;;;;1.10;0.80;;;9.10;99.90;;;;;;5036066;28;20420;-75
2023/01/11 00:56:50;;;;;;;2.60;0.80;;;9.20;99.90;;;;;;5035421;28;20449;-76
2023/01/11 00:59:17;;;;;;;3.20;1.17;;;9.20;99.90;;;;;;5034821;28;20958;-75
2023/01/11 01:01:44;;;;;;;0.90;0.60;;;9.20;99.90;;;;;;5000042;28;20508;-75
2023/01/11 01:04:12;;;;;;;0.90;0.70;;;9.20;99.90;;;;;;5034880;28;20448;-74
2023/01/11 01:06:39;;;;;;;1.00;0.70;;;9.30;99.90;;;;;;5037304;28;20483;-75
2023/01/11 01:09:09;;;;;;;1.83;0.93;;;9.40;99.90;;;;;;5039398;28;20478;-74
2023/01/11 01:11:38;;;;;;;1.83;0.80;;;9.30;99.90;;;;;;5035163;28;20951;-75
2023/01/11 01:16:50;;;;;;;1.20;0.87;;;9.20;99.90;;;;;;5038819;28;20778;-76
2023/01/11 01:19:17;;;;;;;1.00;0.80;;;9.30;99.90;;;;;;5039413;28;20477;-76
2023/01/11 01:21:44;;;;;;;1.10;0.90;;;9.40;99.90;;;;;;5037894;28;20871;-75
2023/01/11 01:24:11;;;;;;;1.10;0.70;;;9.40;99.90;;;;;;5039022;28;20517;-76
2023/01/11 01:26:39;;;;;;;1.00;0.70;;;9.40;99.90;;;;;;5035785;28;20446;-75
2023/01/11 01:29:06;;;;;;;0.90;0.70;;;9.40;99.90;;;;;;5034610;28;20445;-75
2023/01/11 01:31:33;;;;;;;1.00;0.80;;;9.40;99.90;;;;;;5034607;28;20491;-76
2023/01/11 01:34:01;;;;;;;0.90;0.60;;;9.50;99.90;;;;;;5034597;28;20516;-76
2023/01/11 01:36:29;;;;;;;0.90;0.70;;;9.50;99.90;;;;;;5034427;28;20465;-75
2023/01/11 01:38:56;;;;;;;1.20;1.10;;;9.50;99.90;;;;;;5033893;28;20467;-75
2023/01/11 01:41:23;;;;;;;0.90;0.60;;;9.60;99.90;;;;;;5015434;28;20869;-75
2023/01/11 01:43:53;;;;;;;1.30;0.70;;;9.60;99.90;;;;;;5034388;28;20420;-75
2023/01/11 01:46:22;;;;;;;0.90;0.70;;;9.60;99.90;;;;;;5033517;28;20481;-75
2023/01/11 01:48:53;;;;;;;1.30;0.77;;;9.60;99.90;;;;;;5034012;28;20556;-76
2023/01/11 01:51:24;;;;;;;0.93;0.67;;;9.70;99.90;;;;;;5033759;28;20500;-75
2023/01/11 01:53:54;;;;;;;0.90;0.60;;;9.70;99.90;;;;;;5035217;28;20501;-75
2023/01/11 01:56:26;;;;;;;0.90;0.60;;;9.70;99.90;;;;;;5036831;28;20435;-75
2023/01/11 01:59:00;;;;;;;0.90;0.60;;;9.80;99.90;;;;;;5038720;28;20448;-76
2023/01/11 02:04:21;;;;;;;0.90;0.70;;;9.70;99.90;;;;;;5034128;28;20507;-76
2023/01/11 02:06:53;;;;;;;0.93;0.70;;;9.80;99.90;;;;;;5033776;28;20453;-76
2023/01/11 02:09:26;;;;;;;0.90;0.60;;;9.70;99.90;;;;;;5033865;28;20979;-75
2023/01/11 02:11:56;;;;;;;0.90;0.70;;;9.70;99.90;;;;;;4983634;28;20417;-75
2023/01/11 02:14:25;;;;;;;1.07;0.80;;;9.70;99.90;;;;;;5034571;28;20964;-75
2023/01/11 02:16:52;;;;;;;1.10;0.90;;;9.80;99.90;;;;;;5035269;28;20422;-74
2023/01/11 02:19:39;;;;;;;1.07;0.70;;;9.80;99.90;;;;;;5034207;28;20448;-76
2023/01/11 02:22:21;;;;;;;0.90;0.60;;;9.70;99.90;;;;;;5033743;28;20537;-74
2023/01/11 02:25:17;;;;;;;0.90;0.70;;;9.70;99.90;;;;;;5033011;28;20489;-76
2023/01/11 02:28:05;;;;;;;2.70;0.80;;;9.80;99.90;;;;;;5033024;28;20417;-75
2023/01/11 02:30:37;;;;;;;1.10;0.70;;;9.70;99.90;;;;;;5038179;28;20467;-76
2023/01/11 02:33:13;;;;;;;0.90;0.60;;;9.80;99.90;;;;;;5034251;28;20455;-75
2023/01/11 02:35:49;;;;;;;2.20;0.90;;;9.80;99.90;;;;;;5036112;28;20409;-75
2023/01/11 02:38:28;;;;;;;1.20;0.70;;;9.70;99.90;;;;;;5038368;28;20836;-75
2023/01/11 02:41:01;;;;;;;1.10;0.80;;;9.70;99.90;;;;;;5032826;28;20435;-75
2023/01/11 02:46:31;;;;;;;0.90;0.63;;;9.60;99.90;;;;;;5034869;28;20458;-75
2023/01/11 02:49:04;;;;;;;0.90;0.60;;;9.60;99.90;;;;;;5034750;28;20525;-75
2023/01/11 02:51:38;;;;;;;1.63;0.90;;;9.60;99.90;;;;;;5033977;28;20448;-75
2023/01/11 02:54:10;;;;;;;1.40;0.90;;;9.50;99.90;;;;;;5033247;28;20843;-74
2023/01/11 02:56:40;;;;;;;1.10;0.83;;;9.40;99.90;;;;;;5032541;28;20466;-75
2023/01/11 02:59:12;;;;;;;0.90;0.70;;;9.50;99.90;;;;;;5032845;28;20448;-75
2023/01/11 03:01:46;;;;;;;1.00;0.80;;;9.40;99.90;;;;;;5033096;28;20416;-75
2023/01/11 03:04:24;;;;;;;0.90;0.70;;;9.40;99.90;;;;;;5033258;28;20529;-76
2023/01/11 03:07:02;;;;;;;0.90;0.70;;;9.50;99.90;;;;;;5033154;28;20510;-75
2023/01/11 03:09:34;;;;;;;0.90;0.60;;;9.60;99.90;;;;;;5032475;28;20919;-75
2023/01/11 03:15:25;;;;;;;1.00;0.70;;;9.40;99.90;;;;;;5034252;28;20936;-75
2023/01/11 03:17:59;;;;;;;0.90;0.60;;;9.40;99.90;;;;;;5035276;28;20477;-76
2023/01/11 03:20:30;;;;;;;1.10;0.80;;;9.50;99.90;;;;;;5032731;28;20878;-75
2023/01/11 03:23:10;;;;;;;1.00;0.80;;;9.50;99.90;;;;;;5032472;28;20556;-75
2023/01/11 03:25:47;;;;;;;0.90;0.70;;;9.40;99.90;;;;;;5032734;28;20436;-75
2023/01/11 03:28:28;;;;;;;1.00;0.77;;;9.40;99.90;;;;;;5032463;28;20477;-75
2023/01/11 03:31:02;;;;;;;1.30;0.80;;;9.40;99.90;;;;;;5031905;28;20469;-75
2023/01/11 03:33:36;;;;;;;1.00;0.67;;;9.40;99.90;;;;;;5032574;28;20889;-75
2023/01/11 03:36:12;;;;;;;0.90;0.70;;;9.30;99.90;;;;;;5032259;28;20515;-74
2023/01/11 03:38:44;;;;;;;0.90;0.70;;;9.30;99.90;;;;;;5034580;28;20499;-75
2023/01/11 03:41:17;;;;;;;1.13;0.80;;;9.30;99.90;;;;;;5033142;28;20464;-75
2023/01/11 03:43:46;;;;;;;1.40;1.07;;;9.40;99.90;;;;;;5031981;28;20478;-75
2023/01/11 03:46:17;;;;;;;0.90;0.60;;;9.30;99.90;;;;;;5031978;28;20446;-75
2023/01/11 03:48:49;;;;;;;0.90;0.60;;;9.40;99.90;;;;;;5032313;28;20532;-76
2023/01/11 03:51:26;;;;;;;1.00;0.70;;;9.30;99.90;;;;;;5034067;28;20486;-75
2023/01/11 03:53:56;;;;;;;1.00;0.80;;;9.40;99.90;;;;;;5036745;28;20970;-75
2023/01/11 03:56:29;;;;;;;0.93;0.70;;;9.40;99.90;;;;;;5037825;28;20465;-75
2023/01/11 03:58:56;;;;;;;1.00;0.70;;;9.30;99.90;;;;;;5032179;28;20448;-76
2023/01/11 04:01:25;;;;;;;0.90;0.67;;;9.30;99.90;;;;;;5032219;28;20508;-75
2023/01/11 04:03:53;;;;;;;0.90;0.70;;;9.40;99.90;;;;;;5032205;28;20487;-75
2023/01/11 04:06:20;;;;;;;0.90;0.70;;;9.50;99.90;;;;;;5031763;28;20453;-75
2023/01/11 04:08:47;;;;;;;0.90;0.70;;;9.50;99.90;;;;;;5031823;28;20982;-74
2023/01/11 04:11:14;;;;;;;1.13;1.00;;;9.60;99.90;;;;;;5034819;28;20433;-76
2023/01/11 04:13:41;;;;;;;1.10;0.70;;;9.40;99.90;;;;;;5033524;28;21022;-76
2023/01/11 04:16:08;;;;;;;0.90;0.60;;;9.50;99.90;;;;;;5031594;28;20767;-75
2023/01/11 04:18:36;;;;;;;1.00;0.70;;;9.40;99.90;;;;;;5031027;28;20843;-76
2023/01/11 04:21:03;;;;;;;0.90;0.60;;;9.40;99.90;;;;;;5031324;28;20486;-75
2023/01/11 04:23:30;;;;;;;0.90;0.70;;;9.50;99.90;;;;;;4996908;28;20517;-75
2023/01/11 04:25:57;;;;;;;1.00;0.70;;;9.50;99.90;;;;;;5035505;28;20473;-76
2023/01/11 04:28:24;;;;;;;0.90;0.70;;;9.50;99.90;;;;;;5035214;28;20480;-76
2023/01/11 04:30:50;;;;;;;0.90;0.60;;;9.60;99.90;;;;;;5034925;28;20458;-76
2023/01/11 04:33:19;;;;;;;1.00;0.70;;;9.50;99.90;;;;;;5035399;28;20521;-75
2023/01/11 04:35:48;;;;;;;1.00;0.77;;;9.50;99.90;;;;;;5039386;28;20429;-75
2023/01/11 04:38:16;;;;;;;1.00;0.70;;;9.60;99.90;;;;;;5035129;28;20466;-74
2023/01/11 04:40:43;;;;;;;1.00;0.70;;;9.60;99.90;;;;;;5034802;28;20474;-74
2023/01/11 04:43:09;;;;;;;0.90;0.60;;;9.70;99.90;;;;;;5034362;28;20499;-74
2023/01/11 04:45:36;;;;;;;0.90;0.70;;;9.60;99.90;;;;;;5034975;28;20450;-75
2023/01/11 04:48:03;;;;;;;1.63;1.00;;;9.60;99.90;;;;;;5034064;28;20471;-75
2023/01/11 04:50:30;;;;;;;0.90;0.60;;;9.60;99.90;;;;;;5035293;28;20446;-76
2023/01/11 04:52:59;;;;;;;0.90;0.70;;;9.60;99.90;;;;;;5034629;28;20431;-75
2023/01/11 04:55:26;;;;;;;0.90;0.70;;;9.60;99.90;;;;;;5034977;28;20547;-75
2023/01/11 04:57:53;;;;;;;0.90;0.70;;;9.60;99.90;;;;;;5034927;28;20449;-76
2023/01/11 05:00:21;;;;;;;0.90;0.80;;;9.70;99.90;;;;;;5036708;28;20428;-75
2023/01/11 05:02:50;;;;;;;0.90;0.70;;;9.70;99.90;;;;;;5036231;28;20570;-75
2023/01/11 05:05:20;;;;;;;1.37;1.10;;;9.70;99.90;;;;;;5035200;28;20451;-75
2023/01/11 05:07:49;;;;;;;1.10;0.90;;;9.70;99.90;;;;;;5033451;28;20479;-75
2023/01/11 05:10:18;;;;;;;0.90;0.60;;;9.80;99.90;;;;;;5034899;28;20428;-74
2023/01/11 05:12:45;;;;;;;1.00;0.80;;;9.70;99.90;;;;;;5038593;28;20540;-75
2023/01/11 05:15:12;;;;;;;1.00;0.60;;;9.80;99.90;;;;;;5041773;28;20951;-75
2023/01/11 05:17:41;;;;;;;1.10;0.90;;;9.90;99.90;;;;;;5034890;28;20448;-75
2023/01/11 05:20:09;;;;;;;1.57;0.80;;;9.90;99.90;;;;;;5034700;28;20433;-74
2023/01/11 05:22:36;;;;;;;0.90;0.70;;;10.00;99.90;;;;;;5035035;28;20873;-75
2023/01/11 05:25:03;;;;;;;1.30;0.83;;;9.90;99.90;;;;;;5033074;28;20462;-75
2023/01/11 05:27:37;;;;;;;1.20;0.90;;;10.00;99.90;;;;;;5034364;28;20462;-75
2023/01/11 05:30:04;;;;;;;1.00;0.90;;;9.90;99.90;;;;;;5034914;28;20432;-75
2023/01/11 05:32:31;;;;;;;1.00;0.70;;;10.00;99.90;;;;;;5034455;28;20928;-75
2023/01/11 05:34:58;;;;;;;0.90;0.70;;;9.90;99.90;;;;;;5033996;28;20905;-74
2023/01/11 05:37:25;;;;;;;0.90;0.67;;;9.90;99.90;;;;;;5033065;28;20471;-75
2023/01/11 05:39:52;;;;;;;1.10;0.80;;;9.90;99.90;;;;;;5033896;28;20454;-74
2023/01/11 05:42:20;;;;;;;1.00;0.90;;;10.00;99.90;;;;;;5034297;28;20426;-75
2023/01/11 05:47:34;;;;;;;1.30;0.90;;;10.00;99.90;;;;;;5034432;28;20454;-75
2023/01/11 05:50:01;;;;;;;1.83;1.00;;;10.10;99.90;;;;;;5033447;28;20431;-75
2023/01/11 05:52:28;;;;;;;1.33;0.83;;;10.10;99.90;;;;;;5036096;28;20519;-75
2023/01/11 05:54:55;;;;;;;0.90;0.80;;;10.20;99.90;;;;;;5035972;28;20540;-75
2023/01/11 05:57:22;;;;;;;2.07;0.80;;;10.20;99.90;;;;;;5033931;28;20931;-75
2023/01/11 05:59:50;;;;;;;1.10;0.90;;;10.30;99.90;;;;;;5033745;28;20850;-75
2023/01/11 06:02:18;;;;;;;0.90;0.70;;;10.30;99.90;;;;;;5034163;28;20453;-76
2023/01/11 06:04:44;;;;;;;1.13;0.80;;;10.40;99.90;;;;;;5034089;28;20548;-75
2023/01/11 06:07:11;;;;;;;1.00;0.77;;;10.20;99.90;;;;;;5033515;28;20483;-76
2023/01/11 06:09:38;;;;;;;1.00;0.80;;;10.40;99.90;;;;;;5033368;28;20501;-75
2023/01/11 06:12:06;;;;;;;1.17;0.87;;;10.50;99.90;;;;;;5033602;28;20479;-75
2023/01/11 06:14:33;;;;;;;1.93;0.80;;;10.50;99.90;;;;;;5033868;28;20417;-75
2023/01/11 06:17:03;;;;;;;1.13;0.80;;;10.50;99.90;;;;;;5033873;28;20459;-75
2023/01/11 06:19:30;;;;;;;0.90;0.70;;;10.60;99.90;;;;;;5034282;28;20501;-74
2023/01/11 06:21:57;;;;;;;0.90;0.80;;;10.60;99.90;;;;;;5033822;28;20517;-76
2023/01/11 06:24:24;;;;;;;1.00;0.77;;;10.70;99.90;;;;;;5034749;28;20954;-74
2023/01/11 06:26:52;;;;;;;1.17;0.83;;;10.70;99.90;;;;;;5032465;28;20503;-73
2023/01/11 06:29:19;;;;;;;1.20;0.90;;;10.70;99.90;;;;;;5032555;28;20429;-74
2023/01/11 06:31:46;;;;;;;2.80;1.03;;;10.70;99.90;;;;;;5035105;28;20441;-74
2023/01/11 06:34:14;;;;;;;1.20;0.90;;;10.70;99.90;;;;;;5034306;28;20479;-73
2023/01/11 06:36:41;;;;;;;1.10;0.80;;;10.80;99.90;;;;;;5036066;28;20518;-73
2023/01/11 06:39:11;;;;;;;0.90;0.70;;;10.70;99.90;;;;;;5032665;28;20849;-74
2023/01/11 06:41:38;;;;;;;5.23;0.90;;;10.70;99.90;;;;;;5033213;28;20445;-73
2023/01/11 06:44:05;;;;;;;1.00;0.80;;;10.80;99.90;;;;;;5032204;28;20824;-73
2023/01/11 06:46:32;;;;;;;1.10;0.90;;;10.90;99.90;;;;;;5031907;28;20422;-73
2023/01/11 06:49:01;;;;;;;1.10;0.90;;;10.80;99.90;;;;;;5032191;28;20510;-73
2023/01/11 06:51:31;;;;;;;1.10;0.80;;;10.80;99.90;;;;;;5032246;28;20459;-73
2023/01/11 06:54:01;;;;;;;1.30;0.90;;;10.90;99.90;;;;;;5032353;28;20423;-73
2023/01/11 06:56:28;;;;;;;0.93;0.80;;;10.90;99.90;;;;;;5032023;28;20954;-74
2023/01/11 06:58:55;;;;;;;1.00;0.80;;;10.80;99.90;;;;;;5031825;28;20988;-73
2023/01/11 07:01:23;;;;;;;1.00;0.80;;;10.90;99.90;;;;;;5032264;28;20451;-73
2023/01/11 07:03:52;;;;;;;1.70;1.00;;;10.90;99.90;;;;;;5032180;28;20480;-73
2023/01/11 07:06:19;;;;;;;1.50;1.30;;;11.00;99.90;;;;;;5031814;28;20436;-73
2023/01/11 07:08:47;;;;;;;1.30;1.00;;;10.90;99.90;;;;;;5031826;28;21001;-73
2023/01/11 07:11:14;;;;;;;0.90;0.70;;;11.00;99.90;;;;;;5032822;28;20502;-74
2023/01/11 07:13:41;;;;;;;1.00;0.90;;;10.90;99.90;;;;;;5036827;28;20451;-74
2023/01/11 07:16:08;;;;;;;1.10;0.90;;;11.00;99.90;;;;;;5032248;28;20454;-74
2023/01/11 07:18:36;;;;;;;1.07;0.80;;;11.00;99.90;;;;;;5031731;28;20505;-74
2023/01/11 07:21:03;;;;;;;1.00;0.80;;;11.00;99.90;;;;;;5031833;28;20460;-74
2023/01/11 07:23:30;;;;;;;2.10;1.37;;;10.90;99.90;;;;;;5031930;28;20484;-74
2023/01/11 07:25:58;;;;;;;1.20;1.03;;;10.90;99.90;;;;;;5031812;28;20543;-74
2023/01/11 07:28:27;;;;;;;3.77;1.10;;;10.90;99.90;;;;;;5031635;28;20773;-74
2023/01/11 07:30:54;;;;;;;1.77;1.20;;;11.00;99.90;;;;;;5031941;28;20481;-74
2023/01/11 07:33:21;;;;;;;2.00;1.63;;;11.00;99.90;;;;;;5031561;28;20557;-74
2023/01/11 07:35:48;;;;;;;1.20;1.10;;;11.00;99.90;;;;;;5031693;28;20506;-74
2023/01/11 07:38:15;;;;;;;3.60;1.50;;;11.00;99.90;;;;;;5031370;28;20458;-74
2023/01/11 07:40:42;;;;;;;2.20;1.70;;;11.00;99.90;;;;;;5031756;28;20457;-74
2023/01/11 07:43:13;;;;;;;2.20;2.00;;;11.00;99.90;;;;;;5031855;28;20533;-74
2023/01/11 07:45:42;;;;;;;1.50;1.37;;;11.10;99.90;;;;;;5031866;28;20428;-75
2023/01/11 07:48:10;;;;;;;2.70;1.50;;;11.00;99.90;;;;;;5031480;28;20473;-75
2023/01/11 07:50:39;;;;;;;1.60;1.20;;;11.10;99.90;;;;;;5031268;28;21006;-75
2023/01/11 07:53:06;;;;;;;1.67;1.27;;;11.10;99.90;;;;;;5036799;28;20422;-75
2023/01/11 07:55:33;;;;;;;1.73;1.37;;;11.10;99.90;;;;;;5038212;28;21017;-75
2023/01/11 07:58:01;;;;;;;1.80;1.20;;;11.10;99.90;;;;;;5032997;28;20441;-75
2023/01/11 08:00:30;;;;;;;3.90;3.17;;;11.10;99.90;;;;;;5035470;28;21284;-76
2023/01/11 08:02:57;;;;;;;4.40;3.03;;;11.10;99.90;;;;;;5035525;28;20541;-75
2023/01/11 08:05:24;;;;;;;2.93;1.90;;;11.20;99.90;;;;;;5035302;28;20828;-75
2023/01/11 08:07:51;;;;;;;2.40;1.50;;;11.20;99.90;;;;;;5035365;28;20544;-75
2023/01/11 08:10:18;;;;;;;2.30;2.00;;;11.20;99.90;;;;;;5035354;28;20517;-75
2023/01/11 08:15:34;;;;;;;2.97;1.80;;;11.20;99.90;;;;;;5035407;28;20485;-75
2023/01/11 08:18:03;;;;;;;1.90;1.40;;;11.30;99.90;;;;;;5034915;28;20947;-75
2023/01/11 08:20:30;;;;;;;2.40;1.90;;;11.30;99.90;;;;;;5035816;28;20501;-75
2023/01/11 08:22:57;;;;;;;2.20;1.77;;;11.30;99.90;;;;;;5000556;28;20443;-75
2023/01/11 08:25:24;;;;;;;3.07;2.60;;;11.30;99.90;;;;;;5035348;28;20582;-75
2023/01/11 08:27:50;;;;;;;4.67;3.10;;;11.30;99.90;;;;;;5035168;28;20470;-75
2023/01/11 08:30:18;;;;;;;3.93;3.33;;;11.30;99.90;;;;;;5035040;28;20525;-75
2023/01/11 08:32:46;;;;;;;3.13;2.13;;;11.30;99.90;;;;;;5035096;28;20426;-75
2023/01/11 08:35:13;;;;;;;4.73;3.10;;;11.30;99.90;;;;;;5042336;28;20830;-76
2023/01/11 08:37:40;;;;;;;3.43;3.03;;;11.40;99.90;;;;;;5035176;28;20917;-75
2023/01/11 08:40:08;;;;;;;3.70;3.10;;;11.40;99.90;;;;;;5034993;28;20451;-75
2023/01/11 08:42:35;;;;;;;5.00;2.97;;;11.40;99.90;;;;;;5035009;28;20455;-75
2023/01/11 08:45:02;;;;;;;4.77;3.70;;;11.40;99.90;;;;;;5035025;28;20485;-75
2023/01/11 08:47:29;;;;;;;6.07;3.40;;;11.40;99.90;;;;;;5034603;28;20453;-75
2023/01/11 08:49:57;;;;;;;7.33;3.57;;;11.40;99.90;;;;;;5034763;28;20453;-75
2023/01/11 08:52:24;;;;;;;4.70;3.07;;;11.40;99.90;;;;;;5034834;28;20426;-76
2023/01/11 08:54:51;;;;;;;4.53;3.90;;;11.40;99.90;;;;;;5034411;28;20839;-75
2023/01/11 08:57:18;;;;;;;4.70;3.43;;;11.40;99.90;;;;;;5034450;28;20555;-75
2023/01/11 08:59:45;;;;;;;4.40;3.30;;;11.40;99.90;;;;;;5034502;28;20520;-74
2023/01/11 09:02:12;;;;;;;4.30;3.30;;;11.40;99.90;;;;;;5034411;28;20436;-75
2023/01/11 09:04:39;;;;;;;3.30;2.60;;;11.40;99.90;;;;;;5034667;28;20566;-75
2023/01/11 09:07:08;;;;;;;4.07;3.00;;;11.40;99.90;;;;;;5034490;28;20540;-74
2023/01/11 09:09:35;;;;;;;10.27;5.80;;;11.40;99.90;;;;;;5033902;28;20483;-75
2023/01/11 09:12:03;;;;;;;10.23;5.33;;;11.30;99.90;;;;;;5033019;28;20513;-74
2023/01/11 09:14:30;;;;;;;4.17;2.93;;;11.30;99.90;;;;;;5036613;28;20539;-74
2023/01/11 09:16:57;;;;;;;6.30;2.80;;;11.20;99.90;;;;;;5045002;28;20851;-74
2023/01/11 09:19:25;;;;;;;8.27;2.90;;;11.00;99.90;;;;;;5035704;28;20462;-74
2023/01/11 09:21:54;;;;;;;4.97;3.03;;;10.90;99.90;;;;;;5034223;28;20477;-75
2023/01/11 09:24:23;;;;;;;8.10;3.33;;;11.00;99.90;;;;;;5034205;28;20858;-75
2023/01/11 09:26:50;;;;;;;10.20;2.43;;;10.90;99.90;;;;;;5033603;28;20525;-74
2023/01/11 09:29:17;;;;;;;5.40;3.20;;;10.80;99.90;;;;;;5033472;28;20550;-75
2023/01/11 09:31:44;;;;;;;2.80;2.53;;;10.80;99.90;;;;;;5033776;28;20621;-75
2023/01/11 09:34:12;;;;;;;8.50;1.90;;;10.80;99.90;;;;;;5034176;28;20452;-74
2023/01/11 09:36:39;;;;;;;20.73;4.30;;;10.80;99.90;;;;;;5033701;28;20455;-76
2023/01/11 09:39:10;;;;;;;9.77;3.13;;;10.80;99.90;;;;;;5034247;28;20753;-75
2023/01/11 09:42:14;;;;;;;8.77;2.37;;;10.80;99.90;;;;;;5033368;28;20411;-75
2023/01/11 09:44:49;;;;;;;8.40;2.50;;;10.90;99.90;;;;;;5014691;28;20490;-75
2023/01/11 09:47:28;;;;;;;4.27;2.13;;;10.90;99.90;;;;;;5033897;28;20472;-75
2023/01/11 09:49:57;;;;;;;5.23;2.13;;;11.00;99.90;;;;;;5002376;28;20428;-75
2023/01/11 09:52:39;;;;;;;3.80;2.50;;;10.90;99.90;;;;;;5034413;28;20947;-75
2023/01/11 09:55:14;;;;;;;7.90;2.17;;;10.90;99.90;;;;;;5035908;28;20683;-76
2023/01/11 09:58:02;;;;;;;9.27;2.17;;;11.00;99.90;;;;;;5040695;28;20566;-75
2023/01/11 10:00:41;;;;;;;4.60;1.83;;;10.90;99.90;;;;;;5032466;28;20441;-75
2023/01/11 10:03:34;;;;;;;3.73;1.90;;;10.90;99.90;;;;;;5033186;28;20907;-75
2023/01/11 10:06:10;;;;;;;5.80;2.20;;;10.90;99.90;;;;;;5031441;28;20498;-74
2023/01/11 10:08:54;;;;;;;18.23;2.77;;;10.80;99.90;;;;;;5033096;28;20552;-75
2023/01/11 10:11:32;;;;;;;12.40;2.37;;;10.70;99.90;;;;;;5033442;28;20497;-75
2023/01/11 10:14:09;;;;;;;3.40;1.73;;;10.80;99.90;;;;;;5033009;28;20903;-74
2023/01/11 10:16:46;;;;;;;5.50;2.93;;;10.90;99.90;;;;;;5032900;28;20442;-75
2023/01/11 10:19:18;;;;;;;3.83;1.93;;;10.90;99.90;;;;;;5033430;28;20553;-73
2023/01/11 10:21:49;;;;;;;4.10;1.77;;;11.00;99.90;;;;;;5033263;28;20470;-75
2023/01/11 10:24:25;;;;;;;4.07;1.83;;;10.90;99.90;;;;;;5032963;28;20509;-75
2023/01/11 10:26:57;;;;;;;5.60;2.13;;;10.90;99.90;;;;;;5032573;28;20410;-76
2023/01/11 10:29:48;;;;;;;1.73;1.37;;;10.90;99.90;;;;;;5033024;28;20466;-75
2023/01/11 10:32:33;;;;;;;3.00;2.00;;;10.90;99.90;;;;;;5033353;28;20417;-76
2023/01/11 10:35:23;;;;;;;3.90;2.63;;;10.80;99.90;;;;;;5034546;28;20831;-75
2023/01/11 10:38:09;;;;;;;8.23;2.53;;;10.90;99.90;;;;;;5044306;28;20474;-75
2023/01/11 10:41:07;;;;;;;11.27;2.43;;;10.90;99.90;;;;;;5033773;28;20811;-75
2023/01/11 10:43:47;;;;;;;5.70;3.00;;;10.80;99.90;;;;;;5032871;28;20486;-75
2023/01/11 10:46:25;;;;;;;4.77;2.23;;;10.90;99.90;;;;;;5033972;28;20503;-75
2023/01/11 10:49:03;;;;;;;6.50;1.90;;;10.90;99.90;;;;;;5033288;28;20843;-76
2023/01/11 10:51:36;;;;;;;4.57;2.67;;;10.90;99.90;;;;;;5034858;28;20478;-75
2023/01/11 10:54:14;;;;;;;3.57;1.50;;;10.90;99.90;;;;;;5033620;28;20431;-76
2023/01/11 10:56:53;;;;;;;6.30;1.70;;;10.90;99.90;;;;;;5033499;28;20474;-75
2023/01/11 10:59:45;;;;;;;6.50;3.50;;;10.90;99.90;;;;;;4998485;28;20536;-76
2023/01/11 11:02:31;;;;;;;1.87;1.77;;;10.90;99.90;;;;;;5033417;28;20456;-75
2023/01/11 11:05:11;;;;;;;6.13;1.70;;;10.90;99.90;;;;;;5033508;28;20474;-75
2023/01/11 11:07:45;;;;;;;9.30;2.00;;;10.90;99.90;;;;;;5033365;28;20507;-75
2023/01/11 11:10:20;;;;;;;5.80;2.10;;;10.80;99.90;;;;;;5033228;28;20437;-74
2023/01/11 11:12:54;;;;;;;7.23;2.00;;;10.90;99.90;;;;;;5033017;28;20814;-75
2023/01/11 11:15:29;;;;;;;10.23;1.97;;;10.80;99.90;;;;;;5033723;28;20527;-75
2023/01/11 11:18:00;;;;;;;5.63;1.70;;;10.70;99.90;;;;;;5039387;28;20441;-75
2023/01/11 11:20:31;;;;;;;3.00;1.20;;;10.80;99.90;;;;;;5033741;28;20511;-75
2023/01/11 11:22:59;;;;;;;7.13;2.30;;;10.90;99.90;;;;;;5033610;28;20465;-76
2023/01/11 11:25:31;;;;;;;7.43;3.17;;;11.00;99.90;;;;;;5032919;28;20583;-75
2023/01/11 11:28:02;;;;;;;9.23;1.40;;;11.10;99.90;;;;;;5032719;28;20478;-76
2023/01/11 11:30:33;;;;;;;5.80;2.57;;;11.10;99.90;;;;;;5033211;28;20518;-75
2023/01/11 11:33:10;;;;;;;12.77;1.93;;;10.90;99.90;;;;;;5031973;28;20482;-75
2023/01/11 11:35:42;;;;;;;10.43;1.30;;;10.90;99.90;;;;;;5032891;28;20427;-76
2023/01/11 11:38:22;;;;;;;3.00;1.70;;;10.90;99.90;;;;;;5031509;28;20473;-75
2023/01/11 11:40:58;;;;;;;13.67;2.40;;;10.90;99.90;;;;;;5032380;28;20443;-75
2023/01/11 11:43:26;;;;;;;5.50;1.53;;;11.00;99.90;;;;;;5033037;28;20997;-75
2023/01/11 11:45:55;;;;;;;4.73;1.60;;;11.00;99.90;;;;;;5033179;28;20578;-76
2023/01/11 11:48:26;;;;;;;4.40;2.17;;;10.90;99.90;;;;;;4998409;28;20462;-74
2023/01/11 11:50:55;;;;;;;4.37;2.30;;;10.90;99.90;;;;;;5033036;28;20438;-76
2023/01/11 11:53:41;;;;;;;2.40;2.13;;;10.90;99.90;;;;;;5035095;28;20486;-75
2023/01/11 11:56:18;;;;;;;4.97;1.60;;;10.80;99.90;;;;;;5040698;28;20491;-75
2023/01/11 11:58:45;;;;;;;2.83;1.30;;;10.80;99.90;;;;;;5039353;28;20532;-76
2023/01/11 12:01:38;;;;;;;5.60;2.53;;;11.00;99.90;;;;;;5034126;28;20447;-76
2023/01/11 12:04:16;;;;;;;1.90;1.70;;;11.10;99.90;;;;;;5018736;28;20458;-76
2023/01/11 12:06:44;;;;;;;5.17;2.07;;;11.10;99.90;;;;;;5033548;28;20502;-76
2023/01/11 12:09:22;;;;;;;2.23;1.77;;;11.10;99.90;;;;;;5032662;28;20821;-76
2023/01/11 12:11:50;;;;;;;12.73;3.17;;;10.90;99.90;;;;;;4999369;28;21194;-75
2023/01/11 12:14:24;;;;;;;7.57;3.20;;;10.90;99.90;;;;;;5033426;28;20516;-76
2023/01/11 12:16:51;;;;;;;4.33;1.77;;;10.90;99.90;;;;;;5032129;28;20432;-76
2023/01/11 12:19:41;;;;;;;2.33;2.07;;;10.90;99.90;;;;;;5032823;28;20471;-76
2023/01/11 12:22:15;;;;;;;10.63;2.60;;;11.10;99.90;;;;;;5033099;28;20912;-74
2023/01/11 12:24:44;;;;;;;5.23;3.77;;;12.00;99.90;;;;;;5033515;28;20518;-74
2023/01/11 12:27:27;;;;;;;8.10;3.10;;;13.30;99.90;;;;;;5032506;28;20449;-75
2023/01/11 12:30:14;;;;;;;5.10;1.80;;;14.50;99.90;;;;;;5032689;28;20519;-75
2023/01/11 12:33:16;;;;;;;10.60;2.70;;;14.90;99.90;;;;;;5030833;28;20462;-75
2023/01/11 12:35:54;;;;;;;8.40;2.13;;;15.00;99.90;;;;;;5035293;28;20432;-75
2023/01/11 12:38:37;;;;;;;5.33;1.70;;;14.50;99.90;;;;;;5031756;28;20476;-75
2023/01/11 12:41:44;;;;;;;6.20;3.77;;;13.80;99.90;;;;;;5032417;28;20516;-74
2023/01/11 12:44:15;;;;;;;5.80;2.27;;;13.10;99.90;;;;;;5032725;28;20822;-75
2023/01/11 12:46:58;;;;;;;8.17;2.20;;;12.80;99.90;;;;;;5035916;28;20560;-75
2023/01/11 12:49:45;;;;;;;1.90;1.67;;;12.60;99.90;;;;;;5001209;28;20452;-75
2023/01/11 12:52:51;;;;;;;7.20;3.07;;;12.60;99.90;;;;;;5035600;28;20746;-75
2023/01/11 12:55:31;;;;;;;6.70;2.43;;;12.40;99.90;;;;;;5036091;28;20802;-75
2023/01/11 12:58:07;;;;;;;9.90;2.73;;;12.80;99.90;;;;;;5036049;28;20538;-75
2023/01/11 13:01:07;;;;;;;2.20;2.00;;;13.50;99.90;;;;;;5035272;28;20482;-76
2023/01/11 13:04:05;;;;;;;3.03;1.70;;;14.20;99.90;;;;;;5034973;28;20520;-75
2023/01/11 13:06:40;;;;;;;2.33;1.30;;;14.80;99.90;;;;;;5035677;28;20876;-76
2023/01/11 13:09:22;;;;;;;3.03;1.70;;;14.80;99.90;;;;;;5036316;28;20465;-75
2023/01/11 13:11:59;;;;;;;2.30;2.10;;;14.70;99.90;;;;;;5036386;28;20465;-77
2023/01/11 13:14:41;;;;;;;5.70;2.10;;;14.90;99.90;;;;;;5039891;28;20437;-75
2023/01/11 13:17:19;;;;;;;8.97;2.50;;;15.10;99.90;;;;;;5036524;28;20956;-75
2023/01/11 13:19:55;;;;;;;8.53;2.93;;;15.30;99.90;;;;;;5036928;28;20452;-76
2023/01/11 13:22:28;;;;;;;8.63;2.60;;;15.20;99.90;;;;;;5035545;28;20429;-73
2023/01/11 13:24:58;;;;;;;7.90;2.07;;;15.00;99.90;;;;;;5034870;28;20512;-74
2023/01/11 13:27:27;;;;;;;5.47;3.57;;;15.40;99.90;;;;;;5034586;28;20465;-76
2023/01/11 13:29:58;;;;;;;5.50;2.30;;;15.60;99.90;;;;;;5034325;28;20488;-75
2023/01/11 13:32:29;;;;;;;8.00;2.77;;;16.00;99.90;;;;;;5034637;28;20461;-75
2023/01/11 13:35:03;;;;;;;6.03;1.70;;;16.10;99.90;;;;;;5034180;28;20527;-75
2023/01/11 13:37:36;;;;;;;2.93;2.07;;;16.00;99.90;;;;;;5034372;28;20895;-75
2023/01/11 13:40:10;;;;;;;1.50;1.40;;;16.10;99.90;;;;;;5034541;28;20434;-74